Time;durP1;ratioP1;P1;durP2;ratioP2;P2;SDS_P1;SDS_P2;PMS_P1;PMS_P2;Temp;Humidity;BMP_temperature;BMP_pressure;BME280_temperature;BME280_humidity;BME280_pressure;Samples;Min_cycle;Max_cycle;Signal;HPM_P1;HPM_P2
2023/09/12 00:00:16;;;;;;;3.20;3.00;;;;;;;;;;5024298;28;20433;-61
2023/09/12 00:02:42;;;;;;;3.65;3.35;;;;;;;;;;5024219;28;20140;-61
2023/09/12 00:05:10;;;;;;;3.65;3.35;;;;;;;;;;5022276;28;20046;-61
2023/09/12 00:07:36;;;;;;;4.00;3.67;;;;;;;;;;5025056;28;20046;-61
2023/09/12 00:10:02;;;;;;;3.67;3.40;;;;;;;;;;5024115;28;20037;-61
2023/09/12 00:12:28;;;;;;;3.47;3.17;;;;;;;;;;5023979;28;20610;-61
2023/09/12 00:14:55;;;;;;;3.35;3.13;;;;;;;;;;5023999;28;20812;-61
2023/09/12 00:17:21;;;;;;;3.25;3.05;;;;;;;;;;5022472;28;20044;-61
2023/09/12 00:19:47;;;;;;;3.00;2.80;;;;;;;;;;5025223;28;20041;-61
2023/09/12 00:22:13;;;;;;;2.92;2.72;;;;;;;;;;5024793;28;20497;-61
2023/09/12 00:24:39;;;;;;;3.33;3.13;;;;;;;;;;5024506;28;20037;-60
2023/09/12 00:27:05;;;;;;;3.63;2.85;;;;;;;;;;5025325;28;20051;-60
2023/09/12 00:29:31;;;;;;;3.50;3.20;;;;;;;;;;5026230;28;20037;-60
2023/09/12 00:31:57;;;;;;;3.75;3.45;;;;;;;;;;5024007;28;20404;-60
2023/09/12 00:34:23;;;;;;;3.33;3.03;;;;;;;;;;5025643;28;20040;-61
2023/09/12 00:36:49;;;;;;;2.97;2.78;;;;;;;;;;5024722;28;20041;-60
2023/09/12 00:39:15;;;;;;;3.33;3.13;;;;;;;;;;5023824;28;20457;-60
2023/09/12 00:41:41;;;;;;;3.75;3.45;;;;;;;;;;5023805;28;20033;-60
2023/09/12 00:44:07;;;;;;;3.92;3.53;;;;;;;;;;5024182;28;20041;-61
2023/09/12 00:46:34;;;;;;;3.80;3.50;;;;;;;;;;5023390;28;20037;-61
2023/09/12 00:49:01;;;;;;;2.78;2.58;;;;;;;;;;5023951;28;21068;-61
2023/09/12 00:51:28;;;;;;;2.63;2.42;;;;;;;;;;5024421;28;20041;-60
2023/09/12 00:53:55;;;;;;;2.58;2.38;;;;;;;;;;5022864;28;20072;-61
2023/09/12 00:56:21;;;;;;;3.15;2.95;;;;;;;;;;5022354;28;20053;-60
2023/09/12 00:58:50;;;;;;;2.95;2.72;;;;;;;;;;5023301;28;20048;-61
2023/09/12 01:01:16;;;;;;;3.00;2.80;;;;;;;;;;5023461;28;20037;-61
2023/09/12 01:03:42;;;;;;;2.85;2.65;;;;;;;;;;5023612;28;20055;-61
2023/09/12 01:06:08;;;;;;;2.70;2.60;;;;;;;;;;5024456;28;20040;-61
2023/09/12 01:08:37;;;;;;;3.70;2.83;;;;;;;;;;5023898;28;20065;-61
2023/09/12 01:11:03;;;;;;;3.00;2.80;;;;;;;;;;5023753;28;20046;-61
2023/09/12 01:13:29;;;;;;;3.50;3.03;;;;;;;;;;5025027;28;20088;-60
2023/09/12 01:15:55;;;;;;;3.30;3.10;;;;;;;;;;5026799;28;20041;-60
2023/09/12 01:18:21;;;;;;;3.13;2.92;;;;;;;;;;5027879;28;20125;-60
2023/09/12 01:21:07;;;;;;;3.63;3.33;;;;;;;;;;5026039;28;20482;-61
2023/09/12 01:23:44;;;;;;;3.67;3.30;;;;;;;;;;5016014;28;20578;-60
2023/09/12 01:26:16;;;;;;;3.38;3.08;;;;;;;;;;5027488;28;20047;-61
2023/09/12 01:28:45;;;;;;;3.15;2.85;;;;;;;;;;5024430;28;20419;-61
2023/09/12 01:31:12;;;;;;;3.55;3.25;;;;;;;;;;5027796;28;20068;-60
2023/09/12 01:33:38;;;;;;;2.72;2.53;;;;;;;;;;5026763;28;20029;-60
2023/09/12 01:36:04;;;;;;;2.92;2.72;;;;;;;;;;5027246;28;20044;-61
2023/09/12 01:38:30;;;;;;;2.90;2.70;;;;;;;;;;5028176;28;20076;-60
2023/09/12 01:40:56;;;;;;;2.92;2.72;;;;;;;;;;5026928;28;20473;-61
2023/09/12 01:43:24;;;;;;;2.97;2.78;;;;;;;;;;5026727;28;20044;-60
2023/09/12 01:45:54;;;;;;;2.25;2.15;;;;;;;;;;5025647;28;20091;-60
2023/09/12 01:48:21;;;;;;;3.13;2.92;;;;;;;;;;5026846;28;20516;-60
2023/09/12 01:50:48;;;;;;;3.30;3.10;;;;;;;;;;5024778;28;20371;-60
2023/09/12 01:53:14;;;;;;;3.45;3.15;;;;;;;;;;5027044;28;20057;-59
2023/09/12 01:55:41;;;;;;;3.20;3.00;;;;;;;;;;5026663;28;20060;-60
2023/09/12 01:58:07;;;;;;;2.85;2.60;;;;;;;;;;5026169;28;20052;-60
2023/09/12 02:00:34;;;;;;;2.90;2.70;;;;;;;;;;5030060;28;20368;-60
2023/09/12 02:03:02;;;;;;;3.70;3.40;;;;;;;;;;5026413;28;21089;-60
2023/09/12 02:05:28;;;;;;;4.20;3.80;;;;;;;;;;5025642;28;20505;-60
2023/09/12 02:07:54;;;;;;;3.65;3.35;;;;;;;;;;5026518;28;20045;-60
2023/09/12 02:10:20;;;;;;;3.20;3.00;;;;;;;;;;5025775;28;20107;-60
2023/09/12 02:12:46;;;;;;;3.17;2.88;;;;;;;;;;5025599;28;20386;-60
2023/09/12 02:15:12;;;;;;;3.97;3.33;;;;;;;;;;5026818;28;20077;-60
2023/09/12 02:17:38;;;;;;;3.38;3.17;;;;;;;;;;5026075;28;20042;-60
2023/09/12 02:20:05;;;;;;;3.33;3.10;;;;;;;;;;5026925;28;20041;-60
2023/09/12 02:22:31;;;;;;;2.95;2.75;;;;;;;;;;5024458;28;20044;-60
2023/09/12 02:24:57;;;;;;;2.28;2.08;;;;;;;;;;5024993;28;20037;-60
2023/09/12 02:27:23;;;;;;;2.45;2.25;;;;;;;;;;5028062;28;20033;-60
2023/09/12 02:29:49;;;;;;;1.55;1.45;;;;;;;;;;5027117;28;20033;-60
2023/09/12 02:32:16;;;;;;;2.50;2.30;;;;;;;;;;5025983;28;20615;-63
2023/09/12 02:34:42;;;;;;;1.45;1.35;;;;;;;;;;5025816;28;20425;-60
2023/09/12 02:37:08;;;;;;;1.67;1.58;;;;;;;;;;5026638;28;20433;-60
2023/09/12 02:39:34;;;;;;;2.08;1.98;;;;;;;;;;5026110;28;20037;-60
2023/09/12 02:42:00;;;;;;;2.40;2.30;;;;;;;;;;5027655;28;20041;-60
2023/09/12 02:44:26;;;;;;;2.30;2.20;;;;;;;;;;5027832;28;21128;-59
2023/09/12 02:46:52;;;;;;;2.50;2.30;;;;;;;;;;5025074;28;20049;-59
2023/09/12 02:49:18;;;;;;;2.20;2.10;;;;;;;;;;5025321;28;20060;-59
2023/09/12 02:51:45;;;;;;;3.80;3.50;;;;;;;;;;5025691;28;20049;-60
2023/09/12 02:54:11;;;;;;;2.58;2.38;;;;;;;;;;5025440;28;20037;-59
2023/09/12 02:56:37;;;;;;;3.60;3.30;;;;;;;;;;5024100;28;20058;-60
2023/09/12 02:59:04;;;;;;;2.88;2.67;;;;;;;;;;5024733;28;20042;-60
2023/09/12 03:01:30;;;;;;;3.28;3.08;;;;;;;;;;5025443;28;20099;-60
2023/09/12 03:03:57;;;;;;;3.40;3.10;;;;;;;;;;5025441;28;20072;-60
2023/09/12 03:06:23;;;;;;;3.30;3.00;;;;;;;;;;5026187;28;20132;-59
2023/09/12 03:08:50;;;;;;;3.70;3.40;;;;;;;;;;5025091;28;20140;-60
2023/09/12 03:11:16;;;;;;;3.47;3.25;;;;;;;;;;5026359;28;20052;-60
2023/09/12 03:13:42;;;;;;;3.72;3.42;;;;;;;;;;5024819;28;20038;-59
2023/09/12 03:16:12;;;;;;;4.07;3.78;;;;;;;;;;5026166;28;20076;-60
2023/09/12 03:18:38;;;;;;;4.50;4.20;;;;;;;;;;5025528;28;20060;-60
2023/09/12 03:21:04;;;;;;;3.55;3.35;;;;;;;;;;5025504;28;20037;-59
2023/09/12 03:23:30;;;;;;;3.10;2.90;;;;;;;;;;5026022;28;20285;-59
2023/09/12 03:26:00;;;;;;;3.47;3.28;;;;;;;;;;5025324;28;20045;-60
2023/09/12 03:28:26;;;;;;;4.32;4.03;;;;;;;;;;5023304;28;20462;-59
2023/09/12 03:30:52;;;;;;;3.35;3.15;;;;;;;;;;5026533;28;20401;-60
2023/09/12 03:33:18;;;;;;;2.72;2.53;;;;;;;;;;5025721;28;20041;-60
2023/09/12 03:35:44;;;;;;;3.15;2.95;;;;;;;;;;5024161;28;20041;-60
2023/09/12 03:38:10;;;;;;;2.63;2.53;;;;;;;;;;5025318;28;20040;-60
2023/09/12 03:40:36;;;;;;;2.72;2.53;;;;;;;;;;5025228;28;20067;-59
2023/09/12 03:43:02;;;;;;;2.53;2.38;;;;;;;;;;5024455;28;20746;-59
2023/09/12 03:45:28;;;;;;;3.17;2.97;;;;;;;;;;5025146;28;20045;-60
2023/09/12 03:47:54;;;;;;;3.25;2.85;;;;;;;;;;5024557;28;20068;-60
2023/09/12 03:50:20;;;;;;;3.97;3.67;;;;;;;;;;5024610;28;20516;-59
2023/09/12 03:52:46;;;;;;;2.97;2.78;;;;;;;;;;5024813;28;20120;-59
2023/09/12 03:55:12;;;;;;;3.67;3.38;;;;;;;;;;5024990;28;20037;-59
2023/09/12 03:57:38;;;;;;;3.97;3.50;;;;;;;;;;5024059;28;20044;-59
2023/09/12 04:00:05;;;;;;;2.92;2.72;;;;;;;;;;5025151;28;20033;-61
2023/09/12 04:02:31;;;;;;;3.50;3.20;;;;;;;;;;5023777;28;20041;-60
2023/09/12 04:04:59;;;;;;;3.20;3.00;;;;;;;;;;5023842;28;20045;-60
2023/09/12 04:07:25;;;;;;;3.28;2.97;;;;;;;;;;5024982;28;20171;-59
2023/09/12 04:09:51;;;;;;;3.47;3.17;;;;;;;;;;5023988;28;20049;-60
2023/09/12 04:12:17;;;;;;;3.17;2.97;;;;;;;;;;5024269;28;20049;-60
2023/09/12 04:14:43;;;;;;;3.65;3.35;;;;;;;;;;5024357;28;20069;-60
2023/09/12 04:17:09;;;;;;;4.95;3.15;;;;;;;;;;5023423;28;20053;-60
2023/09/12 04:19:35;;;;;;;5.15;4.75;;;;;;;;;;5024255;28;20041;-60
2023/09/12 04:22:01;;;;;;;4.35;4.05;;;;;;;;;;5024334;28;20080;-60
2023/09/12 04:24:27;;;;;;;3.60;3.30;;;;;;;;;;5024007;28;20124;-60
2023/09/12 04:26:54;;;;;;;4.28;3.97;;;;;;;;;;5023808;28;20179;-60
2023/09/12 04:29:20;;;;;;;3.95;3.65;;;;;;;;;;5023408;28;20516;-60
2023/09/12 04:31:46;;;;;;;4.00;3.70;;;;;;;;;;5023374;28;20164;-59
2023/09/12 04:34:12;;;;;;;3.35;3.13;;;;;;;;;;5024681;28;20049;-59
2023/09/12 04:36:38;;;;;;;3.17;2.97;;;;;;;;;;5024164;28;20706;-59
2023/09/12 04:39:05;;;;;;;2.95;2.75;;;;;;;;;;5024066;28;20038;-60
2023/09/12 04:41:31;;;;;;;3.05;2.85;;;;;;;;;;5024238;28;20379;-59
2023/09/12 04:43:59;;;;;;;3.13;2.92;;;;;;;;;;5023253;28;20048;-59
2023/09/12 04:46:25;;;;;;;3.50;3.20;;;;;;;;;;5022031;28;20077;-60
2023/09/12 04:48:51;;;;;;;3.75;3.50;;;;;;;;;;5025507;28;20058;-60
2023/09/12 04:51:17;;;;;;;3.40;3.20;;;;;;;;;;5028442;28;20099;-60
2023/09/12 04:53:44;;;;;;;2.88;2.67;;;;;;;;;;5027571;28;20041;-59
2023/09/12 04:56:10;;;;;;;3.00;2.80;;;;;;;;;;5026355;28;20094;-59
2023/09/12 04:58:36;;;;;;;2.70;2.50;;;;;;;;;;5027962;28;20122;-60
2023/09/12 05:01:02;;;;;;;2.10;2.00;;;;;;;;;;5026464;28;20040;-60
2023/09/12 05:03:28;;;;;;;2.45;2.25;;;;;;;;;;5027077;28;20512;-59
2023/09/12 05:05:54;;;;;;;1.80;1.70;;;;;;;;;;5028508;28;20083;-59
2023/09/12 05:08:21;;;;;;;2.30;2.13;;;;;;;;;;5028911;28;20088;-59
2023/09/12 05:10:47;;;;;;;2.67;2.47;;;;;;;;;;5028063;28;20105;-60
2023/09/12 05:13:13;;;;;;;2.70;2.50;;;;;;;;;;5027752;28;20449;-60
2023/09/12 05:15:40;;;;;;;2.17;2.08;;;;;;;;;;5027813;28;20355;-59
2023/09/12 05:18:06;;;;;;;3.17;2.97;;;;;;;;;;5028139;28;20106;-60
2023/09/12 05:20:32;;;;;;;3.22;3.03;;;;;;;;;;5024154;28;20038;-60
2023/09/12 05:22:58;;;;;;;3.88;3.60;;;;;;;;;;5026681;28;20119;-59
2023/09/12 05:25:26;;;;;;;3.80;3.53;;;;;;;;;;5027633;28;20033;-59
2023/09/12 05:27:52;;;;;;;3.72;3.47;;;;;;;;;;5023837;28;20098;-59
2023/09/12 05:30:18;;;;;;;3.05;2.85;;;;;;;;;;5027085;28;20042;-60
2023/09/12 05:32:44;;;;;;;2.50;2.30;;;;;;;;;;5027076;28;20037;-59
2023/09/12 05:35:10;;;;;;;2.95;2.75;;;;;;;;;;5025071;28;20076;-59
2023/09/12 05:37:36;;;;;;;2.58;2.38;;;;;;;;;;5027435;28;20053;-59
2023/09/12 05:40:03;;;;;;;2.83;2.63;;;;;;;;;;5026173;28;20531;-60
2023/09/12 05:42:29;;;;;;;3.00;2.80;;;;;;;;;;5026764;28;20052;-60
2023/09/12 05:44:56;;;;;;;3.10;2.90;;;;;;;;;;5025290;28;20107;-60
2023/09/12 05:47:22;;;;;;;2.88;2.60;;;;;;;;;;5027049;28;20829;-59
2023/09/12 05:49:48;;;;;;;2.95;2.75;;;;;;;;;;5026212;28;20053;-59
2023/09/12 05:52:14;;;;;;;3.08;2.88;;;;;;;;;;5027084;28;20052;-59
2023/09/12 05:54:41;;;;;;;2.60;2.40;;;;;;;;;;5025776;28;20041;-60
2023/09/12 05:57:07;;;;;;;2.65;2.45;;;;;;;;;;5026036;28;20034;-60
2023/09/12 05:59:33;;;;;;;2.05;1.92;;;;;;;;;;5026786;28;20049;-60
2023/09/12 06:01:59;;;;;;;3.35;3.05;;;;;;;;;;5026020;28;21144;-60
2023/09/12 06:04:25;;;;;;;4.85;4.45;;;;;;;;;;5023331;28;20083;-59
2023/09/12 06:06:51;;;;;;;4.50;4.10;;;;;;;;;;5022787;28;20425;-59
2023/09/12 06:09:17;;;;;;;4.80;4.40;;;;;;;;;;5023260;28;20049;-59
2023/09/12 06:11:43;;;;;;;5.07;4.68;;;;;;;;;;5024760;28;20475;-59
2023/09/12 06:14:09;;;;;;;4.78;4.38;;;;;;;;;;5027867;28;20059;-60
2023/09/12 06:16:35;;;;;;;5.22;4.82;;;;;;;;;;5027194;28;20736;-60
2023/09/12 06:19:01;;;;;;;6.28;5.70;;;;;;;;;;5027123;28;20049;-60
2023/09/12 06:21:27;;;;;;;6.22;5.63;;;;;;;;;;5027560;28;20103;-59
2023/09/12 06:24:32;;;;;;;6.35;5.75;;;;;;;;;;5026459;28;20060;-59
2023/09/12 06:26:58;;;;;;;6.50;5.93;;;;;;;;;;5002905;28;20033;-58
2023/09/12 06:29:24;;;;;;;7.05;6.32;;;;;;;;;;5004826;28;20088;-60
2023/09/12 06:31:50;;;;;;;7.45;6.65;;;;;;;;;;5013916;28;20668;-60
2023/09/12 06:34:16;;;;;;;6.60;5.93;;;;;;;;;;5027031;28;20079;-60
2023/09/12 06:36:44;;;;;;;7.90;7.18;;;;;;;;;;5024170;28;20041;-60
2023/09/12 06:39:10;;;;;;;8.38;7.57;;;;;;;;;;5023355;28;20045;-59
2023/09/12 06:41:36;;;;;;;7.93;7.13;;;;;;;;;;5027470;28;20063;-59
2023/09/12 06:44:05;;;;;;;7.43;6.72;;;;;;;;;;5026788;28;20049;-59
2023/09/12 06:46:31;;;;;;;6.80;5.90;;;;;;;;;;5025729;28;20065;-58
2023/09/12 06:48:57;;;;;;;5.82;5.30;;;;;;;;;;5024913;28;20110;-60
2023/09/12 06:51:26;;;;;;;8.82;7.93;;;;;;;;;;5026922;28;20141;-60
2023/09/12 06:53:52;;;;;;;10.45;8.88;;;;;;;;;;5022763;28;20046;-59
2023/09/12 06:56:18;;;;;;;12.05;10.82;;;;;;;;;;5027479;28;20041;-60
2023/09/12 06:58:44;;;;;;;9.15;8.23;;;;;;;;;;5026131;28;20106;-60
2023/09/12 07:01:10;;;;;;;9.10;8.20;;;;;;;;;;5026863;28;20780;-60
2023/09/12 07:03:36;;;;;;;9.32;8.35;;;;;;;;;;5026873;28;20056;-60
2023/09/12 07:06:03;;;;;;;7.75;6.95;;;;;;;;;;5025229;28;22247;-60
2023/09/12 07:08:30;;;;;;;7.63;6.90;;;;;;;;;;5025929;28;20094;-59
2023/09/12 07:10:57;;;;;;;5.72;5.13;;;;;;;;;;5025425;28;20573;-60
2023/09/12 07:13:23;;;;;;;4.60;4.20;;;;;;;;;;5026009;28;20042;-60
2023/09/12 07:15:52;;;;;;;3.53;3.22;;;;;;;;;;5026510;28;20127;-63
2023/09/12 07:18:20;;;;;;;3.00;2.80;;;;;;;;;;5027417;28;20099;-61
2023/09/12 07:20:46;;;;;;;4.20;3.90;;;;;;;;;;5026054;28;20052;-62
2023/09/12 07:23:12;;;;;;;7.35;6.65;;;;;;;;;;5026988;28;20882;-63
2023/09/12 07:25:40;;;;;;;6.82;6.15;;;;;;;;;;5021367;28;20119;-61
2023/09/12 07:28:06;;;;;;;6.60;6.00;;;;;;;;;;5023502;28;20045;-61
2023/09/12 07:30:32;;;;;;;6.85;6.25;;;;;;;;;;5026274;28;20041;-61
2023/09/12 07:32:58;;;;;;;6.43;5.82;;;;;;;;;;5025324;28;20044;-60
2023/09/12 07:35:24;;;;;;;7.70;7.00;;;;;;;;;;5025199;28;20049;-61
2023/09/12 07:37:50;;;;;;;7.50;5.88;;;;;;;;;;5025622;28;20041;-60
2023/09/12 07:40:16;;;;;;;6.18;5.57;;;;;;;;;;5023893;28;20041;-60
2023/09/12 07:42:42;;;;;;;5.55;5.05;;;;;;;;;;5025005;28;20033;-60
2023/09/12 07:45:09;;;;;;;9.45;8.45;;;;;;;;;;5025394;28;20060;-60
2023/09/12 07:47:35;;;;;;;9.48;7.63;;;;;;;;;;5025507;28;20533;-60
2023/09/12 07:50:01;;;;;;;7.78;6.80;;;;;;;;;;5023291;28;20858;-59
2023/09/12 07:52:27;;;;;;;8.75;7.68;;;;;;;;;;5025832;28;20057;-60
2023/09/12 07:54:59;;;;;;;7.32;6.60;;;;;;;;;;5025800;28;20041;-60
2023/09/12 07:57:25;;;;;;;8.30;7.10;;;;;;;;;;5027602;28;20060;-60
2023/09/12 07:59:51;;;;;;;9.02;7.60;;;;;;;;;;5026211;28;20045;-60
2023/09/12 08:02:17;;;;;;;7.38;6.53;;;;;;;;;;5025280;28;20056;-60
2023/09/12 08:04:43;;;;;;;8.93;7.88;;;;;;;;;;5025342;28;20529;-60
2023/09/12 08:07:09;;;;;;;7.22;6.53;;;;;;;;;;5025888;28;20042;-60
2023/09/12 08:09:54;;;;;;;6.88;6.10;;;;;;;;;;5023238;28;20083;-60
2023/09/12 08:12:20;;;;;;;10.48;8.82;;;;;;;;;;5022089;28;20071;-60
2023/09/12 08:14:47;;;;;;;8.43;7.07;;;;;;;;;;5022406;28;20041;-61
2023/09/12 08:17:14;;;;;;;12.70;10.13;;;;;;;;;;5021979;28;20045;-60
2023/09/12 08:19:40;;;;;;;9.70;8.65;;;;;;;;;;5025903;28;20045;-60
2023/09/12 08:22:07;;;;;;;10.57;9.48;;;;;;;;;;5025194;28;20051;-60
2023/09/12 08:24:33;;;;;;;9.18;8.23;;;;;;;;;;5024572;28;20490;-60
2023/09/12 08:26:59;;;;;;;7.72;6.60;;;;;;;;;;5024750;28;20037;-59
2023/09/12 08:29:26;;;;;;;7.25;5.60;;;;;;;;;;5024559;28;20512;-60
2023/09/12 08:31:53;;;;;;;8.55;7.53;;;;;;;;;;5024101;28;20045;-60
2023/09/12 08:34:19;;;;;;;10.40;8.35;;;;;;;;;;5024825;28;20049;-60
2023/09/12 08:36:45;;;;;;;10.93;9.50;;;;;;;;;;5024479;28;20052;-61
2023/09/12 08:39:12;;;;;;;8.85;7.80;;;;;;;;;;5021901;28;20057;-60
2023/09/12 08:41:38;;;;;;;7.22;6.53;;;;;;;;;;5024887;28;20095;-60
2023/09/12 08:44:08;;;;;;;11.80;9.52;;;;;;;;;;5024597;28;20088;-60
2023/09/12 08:46:34;;;;;;;10.77;8.57;;;;;;;;;;5024078;28;21353;-59
2023/09/12 08:49:00;;;;;;;8.88;8.07;;;;;;;;;;5024141;28;20311;-59
2023/09/12 08:51:27;;;;;;;8.60;7.68;;;;;;;;;;5024394;28;20128;-62
2023/09/12 08:53:53;;;;;;;10.90;9.60;;;;;;;;;;5020289;28;20042;-62
2023/09/12 08:56:19;;;;;;;8.85;7.43;;;;;;;;;;5023690;28;20583;-62
2023/09/12 08:58:47;;;;;;;8.45;7.55;;;;;;;;;;5024014;28;20041;-62
2023/09/12 09:01:14;;;;;;;11.23;8.75;;;;;;;;;;5017058;28;20629;-62
2023/09/12 09:03:44;;;;;;;7.95;7.15;;;;;;;;;;5025906;28;20045;-62
2023/09/12 09:06:11;;;;;;;7.20;6.50;;;;;;;;;;5025552;28;20049;-61
2023/09/12 09:08:38;;;;;;;7.45;6.57;;;;;;;;;;5025957;28;20056;-61
2023/09/12 09:11:06;;;;;;;9.18;8.27;;;;;;;;;;5016766;28;20564;-62
2023/09/12 09:13:33;;;;;;;6.88;5.75;;;;;;;;;;5016354;28;20103;-62
2023/09/12 09:16:11;;;;;;;10.25;9.20;;;;;;;;;;5023813;28;20111;-62
2023/09/12 09:18:54;;;;;;;8.50;7.07;;;;;;;;;;5024408;28;20041;-62
2023/09/12 09:21:24;;;;;;;6.20;5.70;;;;;;;;;;5016496;28;20095;-61
2023/09/12 09:23:50;;;;;;;8.93;8.02;;;;;;;;;;5015798;28;20053;-61
2023/09/12 09:26:16;;;;;;;18.75;15.57;;;;;;;;;;5012651;28;20080;-61
2023/09/12 09:28:42;;;;;;;13.57;11.77;;;;;;;;;;5011920;28;20080;-61
2023/09/12 09:31:13;;;;;;;11.63;10.35;;;;;;;;;;5015558;28;20135;-61
2023/09/12 09:33:51;;;;;;;10.02;8.65;;;;;;;;;;5024921;28;20080;-61
2023/09/12 09:36:17;;;;;;;9.13;8.10;;;;;;;;;;5028875;28;20045;-61
2023/09/12 09:38:43;;;;;;;9.93;8.50;;;;;;;;;;5028280;28;20037;-61
2023/09/12 09:41:10;;;;;;;13.25;11.93;;;;;;;;;;5028745;28;20067;-61
2023/09/12 09:43:36;;;;;;;12.52;10.93;;;;;;;;;;5026534;28;20069;-61
2023/09/12 09:46:03;;;;;;;8.98;8.00;;;;;;;;;;5028043;28;20557;-60
2023/09/12 09:48:31;;;;;;;9.60;8.65;;;;;;;;;;5024600;28;20866;-61
2023/09/12 09:51:02;;;;;;;13.48;11.60;;;;;;;;;;5027907;28;20486;-61
2023/09/12 09:53:28;;;;;;;9.25;8.35;;;;;;;;;;5026346;28;20029;-61
2023/09/12 09:56:14;;;;;;;7.63;6.82;;;;;;;;;;5027601;28;20600;-61
2023/09/12 09:58:56;;;;;;;8.10;6.57;;;;;;;;;;5021681;28;20049;-62
2023/09/12 10:01:22;;;;;;;;;;;;;;;;;;5029927;28;20041;-61
2023/09/12 10:03:49;;;;;;;10.90;9.80;;;;;;;;;;5028791;28;19971;-62
2023/09/12 10:06:17;;;;;;;9.18;8.27;;;;;;;;;;5030020;28;20126;-61
2023/09/12 10:08:50;;;;;;;9.88;8.88;;;;;;;;;;5027747;28;20044;-61
2023/09/12 10:11:16;;;;;;;11.43;10.23;;;;;;;;;;5023713;28;20049;-61
2023/09/12 10:13:49;;;;;;;8.45;7.70;;;;;;;;;;5028599;28;20080;-61
2023/09/12 10:16:16;;;;;;;6.53;5.93;;;;;;;;;;5022574;28;20046;-61
2023/09/12 10:18:47;;;;;;;8.40;6.15;;;;;;;;;;5023366;28;20458;-61
2023/09/12 10:21:16;;;;;;;6.13;5.63;;;;;;;;;;5020361;28;20056;-61
2023/09/12 10:23:44;;;;;;;6.82;6.15;;;;;;;;;;5029572;28;20045;-61
2023/09/12 10:26:12;;;;;;;8.05;6.63;;;;;;;;;;5026113;28;20037;-61
2023/09/12 10:28:40;;;;;;;8.38;6.90;;;;;;;;;;5030143;28;20125;-61
2023/09/12 10:31:07;;;;;;;7.40;6.65;;;;;;;;;;5029684;28;20537;-61
2023/09/12 10:33:33;;;;;;;8.65;7.75;;;;;;;;;;5030255;28;20109;-61
2023/09/12 10:36:00;;;;;;;6.90;6.20;;;;;;;;;;5029807;28;20140;-61
2023/09/12 10:38:29;;;;;;;5.95;5.35;;;;;;;;;;5029370;28;20041;-61
2023/09/12 10:40:56;;;;;;;5.72;5.22;;;;;;;;;;5024762;28;20050;-61
2023/09/12 10:43:22;;;;;;;8.63;7.80;;;;;;;;;;5025600;28;20053;-61
2023/09/12 10:45:49;;;;;;;11.38;8.73;;;;;;;;;;5023610;28;20129;-61
2023/09/12 10:48:15;;;;;;;8.48;7.63;;;;;;;;;;5024601;28;20156;-61
2023/09/12 10:50:42;;;;;;;7.63;6.70;;;;;;;;;;5028691;28;20081;-61
2023/09/12 10:53:11;;;;;;;11.20;10.10;;;;;;;;;;5029126;28;20037;-61
2023/09/12 10:55:37;;;;;;;7.95;7.22;;;;;;;;;;5029531;28;20041;-61
2023/09/12 10:58:05;;;;;;;7.35;6.57;;;;;;;;;;5026246;28;20037;-61
2023/09/12 11:00:34;;;;;;;5.30;4.90;;;;;;;;;;5026569;28;20080;-62
2023/09/12 11:03:20;;;;;;;5.82;5.00;;;;;;;;;;5029333;28;20041;-62
2023/09/12 11:05:53;;;;;;;7.47;6.78;;;;;;;;;;5027343;28;20057;-61
2023/09/12 11:08:19;;;;;;;6.38;5.28;;;;;;;;;;5029744;28;20045;-61
2023/09/12 11:10:45;;;;;;;4.78;4.38;;;;;;;;;;5029427;28;20527;-61
2023/09/12 11:13:18;;;;;;;4.53;4.13;;;;;;;;;;5029222;28;20037;-61
2023/09/12 11:16:03;;;;;;;3.95;3.65;;;;;;;;;;5028795;28;20521;-61
2023/09/12 11:18:29;;;;;;;3.70;3.40;;;;;;;;;;5029486;28;20045;-61
2023/09/12 11:20:59;;;;;;;5.15;4.65;;;;;;;;;;5027449;28;20114;-61
2023/09/12 11:23:25;;;;;;;7.30;6.70;;;;;;;;;;5029628;28;20044;-61
2023/09/12 11:26:07;;;;;;;6.00;5.32;;;;;;;;;;5027513;28;20049;-61
2023/09/12 11:28:33;;;;;;;6.97;6.28;;;;;;;;;;5026629;28;20446;-61
2023/09/12 11:30:59;;;;;;;11.88;9.63;;;;;;;;;;5029010;28;20041;-61
2023/09/12 11:33:26;;;;;;;8.48;7.47;;;;;;;;;;5028557;28;20049;-61
2023/09/12 11:35:57;;;;;;;7.85;7.05;;;;;;;;;;5028719;28;20046;-61
2023/09/12 11:38:30;;;;;;;6.68;5.95;;;;;;;;;;5028558;28;20042;-61
2023/09/12 11:40:57;;;;;;;5.72;5.22;;;;;;;;;;5027427;28;20215;-61
2023/09/12 11:43:27;;;;;;;4.13;3.70;;;;;;;;;;5027110;28;20129;-61
2023/09/12 11:45:54;;;;;;;5.95;5.45;;;;;;;;;;5026650;28;20038;-61
2023/09/12 11:48:20;;;;;;;5.30;4.45;;;;;;;;;;5024807;28;20447;-61
2023/09/12 11:50:50;;;;;;;4.75;4.35;;;;;;;;;;5027163;28;20514;-61
2023/09/12 11:53:19;;;;;;;6.03;5.47;;;;;;;;;;5024093;28;20061;-61
2023/09/12 11:55:45;;;;;;;8.05;6.63;;;;;;;;;;5017186;28;20042;-61
2023/09/12 11:58:12;;;;;;;6.97;6.28;;;;;;;;;;5027507;28;20052;-61
2023/09/12 12:00:38;;;;;;;3.80;3.50;;;;;;;;;;5017484;28;20045;-61
2023/09/12 12:03:05;;;;;;;3.95;3.28;;;;;;;;;;5015144;28;20037;-61
2023/09/12 12:05:31;;;;;;;2.28;2.17;;;;;;;;;;5015986;28;20049;-61
2023/09/12 12:07:59;;;;;;;2.38;2.17;;;;;;;;;;5028258;28;20116;-61
2023/09/12 12:10:26;;;;;;;2.70;2.00;;;;;;;;;;5027292;28;20052;-61
2023/09/12 12:12:54;;;;;;;2.83;1.70;;;;;;;;;;5027099;28;20056;-61
2023/09/12 12:15:20;;;;;;;1.17;1.15;;;;;;;;;;5026523;28;20053;-61
2023/09/12 12:17:46;;;;;;;1.15;0.95;;;;;;;;;;5027130;28;20060;-61
2023/09/12 12:20:12;;;;;;;0.88;0.88;;;;;;;;;;5027719;28;20049;-61
2023/09/12 12:22:39;;;;;;;1.52;1.40;;;;;;;;;;5027023;28;20383;-61
2023/09/12 12:25:09;;;;;;;1.10;1.00;;;;;;;;;;5027700;28;20037;-61
2023/09/12 12:27:43;;;;;;;1.27;1.17;;;;;;;;;;5028236;28;20093;-61
2023/09/12 12:30:10;;;;;;;1.30;1.20;;;;;;;;;;5018861;28;20116;-61
2023/09/12 12:32:43;;;;;;;1.60;1.50;;;;;;;;;;5017315;28;20112;-61
2023/09/12 12:35:09;;;;;;;2.22;2.03;;;;;;;;;;5018482;28;20057;-61
2023/09/12 12:37:37;;;;;;;1.88;1.77;;;;;;;;;;5026425;28;20105;-61
2023/09/12 12:40:05;;;;;;;2.00;1.90;;;;;;;;;;5026350;28;20034;-61
2023/09/12 12:42:34;;;;;;;2.20;2.00;;;;;;;;;;5025986;28;20080;-61
2023/09/12 12:45:00;;;;;;;1.23;1.20;;;;;;;;;;5025426;28;20033;-61
2023/09/12 12:47:27;;;;;;;1.77;1.67;;;;;;;;;;5025961;28;20532;-61
2023/09/12 12:49:53;;;;;;;2.65;2.22;;;;;;;;;;5026137;28;20050;-61
2023/09/12 12:52:23;;;;;;;2.67;2.47;;;;;;;;;;5025793;28;20082;-61
2023/09/12 12:54:52;;;;;;;2.40;1.98;;;;;;;;;;5018396;28;20060;-61
2023/09/12 12:57:19;;;;;;;2.25;2.05;;;;;;;;;;5026297;28;20049;-61
2023/09/12 12:59:49;;;;;;;2.47;2.28;;;;;;;;;;5025955;28;20053;-61
2023/09/12 13:02:15;;;;;;;1.80;1.70;;;;;;;;;;5026185;28;20057;-61
2023/09/12 13:04:41;;;;;;;2.10;2.00;;;;;;;;;;5025767;28;20124;-61
2023/09/12 13:07:07;;;;;;;1.88;1.77;;;;;;;;;;5025881;28;20171;-61
2023/09/12 13:09:33;;;;;;;2.47;2.17;;;;;;;;;;5026988;28;20041;-61
2023/09/12 13:12:00;;;;;;;1.90;1.80;;;;;;;;;;5029161;28;20048;-61
2023/09/12 13:14:30;;;;;;;1.60;1.50;;;;;;;;;;5029642;28;20509;-61
2023/09/12 13:16:57;;;;;;;3.47;2.63;;;;;;;;;;5029718;28;20748;-61
2023/09/12 13:19:23;;;;;;;3.33;3.03;;;;;;;;;;5029266;28;20474;-61
2023/09/12 13:21:49;;;;;;;2.60;2.40;;;;;;;;;;5029563;28;20045;-61
2023/09/12 13:24:15;;;;;;;2.30;2.10;;;;;;;;;;5029531;28;20048;-61
2023/09/12 13:26:41;;;;;;;1.95;1.73;;;;;;;;;;5029257;28;20041;-62
2023/09/12 13:29:07;;;;;;;2.33;2.05;;;;;;;;;;5029268;28;20037;-61
2023/09/12 13:31:33;;;;;;;2.50;2.30;;;;;;;;;;5029442;28;20033;-61
2023/09/12 13:33:59;;;;;;;2.88;2.67;;;;;;;;;;5020499;28;20103;-61
2023/09/12 13:36:26;;;;;;;2.13;2.00;;;;;;;;;;5017767;28;20048;-61
2023/09/12 13:38:52;;;;;;;2.33;2.00;;;;;;;;;;5017605;28;20429;-61
2023/09/12 13:41:18;;;;;;;1.73;1.63;;;;;;;;;;5018721;28;20424;-61
2023/09/12 13:43:48;;;;;;;1.23;1.13;;;;;;;;;;5029455;28;20468;-61
2023/09/12 13:46:14;;;;;;;1.20;1.10;;;;;;;;;;5029507;28;20052;-61
2023/09/12 13:48:40;;;;;;;1.92;1.73;;;;;;;;;;5027984;28;20057;-61
2023/09/12 13:51:06;;;;;;;0.95;0.95;;;;;;;;;;5028757;28;20076;-61
2023/09/12 13:53:32;;;;;;;0.95;0.95;;;;;;;;;;5028368;28;20068;-61
2023/09/12 13:55:58;;;;;;;1.55;1.20;;;;;;;;;;5019350;28;20048;-61
2023/09/12 13:58:24;;;;;;;1.20;1.00;;;;;;;;;;5020470;28;20053;-61
2023/09/12 14:00:51;;;;;;;1.20;1.10;;;;;;;;;;5019864;28;20452;-61
2023/09/12 14:03:17;;;;;;;1.75;1.52;;;;;;;;;;5028874;28;20049;-61
2023/09/12 14:05:43;;;;;;;1.17;0.93;;;;;;;;;;5029274;28;20042;-61
2023/09/12 14:08:09;;;;;;;1.23;1.13;;;;;;;;;;5027944;28;20488;-61
2023/09/12 14:10:36;;;;;;;1.23;0.95;;;;;;;;;;5026278;28;20079;-61
2023/09/12 14:13:02;;;;;;;1.08;1.00;;;;;;;;;;5025844;28;20037;-61
2023/09/12 14:15:28;;;;;;;1.35;1.33;;;;;;;;;;5026797;28;20033;-61
2023/09/12 14:17:54;;;;;;;1.30;1.20;;;;;;;;;;5027104;28;20494;-61
2023/09/12 14:20:20;;;;;;;0.90;0.90;;;;;;;;;;5026555;28;20049;-61
2023/09/12 14:22:46;;;;;;;1.05;1.00;;;;;;;;;;5027519;28;20042;-61
2023/09/12 14:25:14;;;;;;;1.17;1.08;;;;;;;;;;5028570;28;20045;-61
2023/09/12 14:27:43;;;;;;;1.25;1.00;;;;;;;;;;5028344;28;20048;-61
2023/09/12 14:30:10;;;;;;;0.90;0.73;;;;;;;;;;5025860;28;20067;-61
2023/09/12 14:32:37;;;;;;;0.88;0.82;;;;;;;;;;5028378;28;20445;-61
2023/09/12 14:35:03;;;;;;;0.80;0.80;;;;;;;;;;5026951;28;20041;-61
2023/09/12 14:37:29;;;;;;;2.15;1.15;;;;;;;;;;5027237;28;20498;-61
2023/09/12 14:39:55;;;;;;;2.00;1.40;;;;;;;;;;5027432;28;20425;-61
2023/09/12 14:42:22;;;;;;;1.02;0.93;;;;;;;;;;5027790;28;20052;-61